sensor_id;sensor_type;location;lat;lon;timestamp;pressure;altitude;pressure_sealevel;temperature;humidity
27232;BME280;61835;50.196;6.454;2022-08-19T00:01:47;96250.97;;;20.15;100.00
27232;BME280;61835;50.196;6.454;2022-08-19T00:04:15;96251.06;;;20.21;100.00
27232;BME280;61835;50.196;6.454;2022-08-19T00:06:42;96255.50;;;20.29;100.00
27232;BME280;61835;50.196;6.454;2022-08-19T00:09:10;96250.78;;;20.16;100.00
27232;BME280;61835;50.196;6.454;2022-08-19T00:11:37;96259.25;;;20.13;100.00
27232;BME280;61835;50.196;6.454;2022-08-19T00:14:03;96256.63;;;20.05;100.00
27232;BME280;61835;50.196;6.454;2022-08-19T00:16:29;96256.94;;;19.95;100.00
27232;BME280;61835;50.196;6.454;2022-08-19T00:18:54;96250.25;;;19.91;100.00
27232;BME280;61835;50.196;6.454;2022-08-19T00:21:20;96252.31;;;19.89;100.00
27232;BME280;61835;50.196;6.454;2022-08-19T00:23:46;96250.88;;;19.93;100.00
27232;BME280;61835;50.196;6.454;2022-08-19T00:26:11;96249.50;;;19.97;100.00
27232;BME280;61835;50.196;6.454;2022-08-19T00:28:37;96250.63;;;19.88;100.00
27232;BME280;61835;50.196;6.454;2022-08-19T00:31:04;96258.41;;;19.98;100.00
27232;BME280;61835;50.196;6.454;2022-08-19T00:33:30;96254.13;;;20.03;100.00
27232;BME280;61835;50.196;6.454;2022-08-19T00:36:00;96262.38;;;20.02;100.00
27232;BME280;61835;50.196;6.454;2022-08-19T00:38:25;96259.69;;;20.02;100.00
27232;BME280;61835;50.196;6.454;2022-08-19T00:40:51;96261.59;;;20.01;100.00
27232;BME280;61835;50.196;6.454;2022-08-19T00:43:23;96253.88;;;19.98;100.00
27232;BME280;61835;50.196;6.454;2022-08-19T00:45:49;96256.84;;;20.03;100.00
27232;BME280;61835;50.196;6.454;2022-08-19T00:48:17;96252.09;;;20.05;100.00
27232;BME280;61835;50.196;6.454;2022-08-19T00:50:44;96254.13;;;20.03;100.00
27232;BME280;61835;50.196;6.454;2022-08-19T00:53:16;96243.53;;;20.02;100.00
27232;BME280;61835;50.196;6.454;2022-08-19T00:55:46;96244.03;;;19.91;100.00
27232;BME280;61835;50.196;6.454;2022-08-19T00:58:16;96244.78;;;19.85;100.00
27232;BME280;61835;50.196;6.454;2022-08-19T01:00:43;96246.63;;;19.84;100.00
27232;BME280;61835;50.196;6.454;2022-08-19T01:03:12;96250.06;;;19.78;100.00
27232;BME280;61835;50.196;6.454;2022-08-19T01:05:40;96237.44;;;19.79;100.00
27232;BME280;61835;50.196;6.454;2022-08-19T01:08:07;96239.66;;;19.75;100.00
27232;BME280;61835;50.196;6.454;2022-08-19T01:10:43;96235.03;;;19.69;100.00
27232;BME280;61835;50.196;6.454;2022-08-19T01:13:10;96231.22;;;19.64;100.00
27232;BME280;61835;50.196;6.454;2022-08-19T01:15:48;96236.59;;;19.64;100.00
27232;BME280;61835;50.196;6.454;2022-08-19T01:18:16;96232.69;;;19.52;100.00
27232;BME280;61835;50.196;6.454;2022-08-19T01:20:43;96227.53;;;19.65;100.00
27232;BME280;61835;50.196;6.454;2022-08-19T01:23:10;96235.03;;;19.69;100.00
27232;BME280;61835;50.196;6.454;2022-08-19T01:25:52;96242.34;;;19.75;100.00
27232;BME280;61835;50.196;6.454;2022-08-19T01:28:23;96235.41;;;19.81;100.00
27232;BME280;61835;50.196;6.454;2022-08-19T01:30:51;96231.50;;;19.83;100.00
27232;BME280;61835;50.196;6.454;2022-08-19T01:33:17;96231.31;;;19.85;100.00
27232;BME280;61835;50.196;6.454;2022-08-19T01:35:44;96236.16;;;19.89;100.00
27232;BME280;61835;50.196;6.454;2022-08-19T01:38:20;96232.53;;;19.82;100.00
27232;BME280;61835;50.196;6.454;2022-08-19T01:40:46;96228.25;;;19.73;100.00
27232;BME280;61835;50.196;6.454;2022-08-19T01:43:12;96216.66;;;19.58;100.00
27232;BME280;61835;50.196;6.454;2022-08-19T01:45:37;96220.38;;;19.57;100.00
27232;BME280;61835;50.196;6.454;2022-08-19T01:48:06;96216.75;;;19.50;100.00
27232;BME280;61835;50.196;6.454;2022-08-19T01:50:33;96215.28;;;19.47;100.00
27232;BME280;61835;50.196;6.454;2022-08-19T01:53:00;96214.44;;;19.47;100.00
27232;BME280;61835;50.196;6.454;2022-08-19T01:55:26;96217.97;;;19.47;100.00
27232;BME280;61835;50.196;6.454;2022-08-19T01:57:55;96223.81;;;19.51;100.00
27232;BME280;61835;50.196;6.454;2022-08-19T02:00:24;96236.06;;;19.39;100.00
27232;BME280;61835;50.196;6.454;2022-08-19T02:02:51;96238.38;;;19.42;100.00
27232;BME280;61835;50.196;6.454;2022-08-19T02:05:16;96233.47;;;19.45;100.00
27232;BME280;61835;50.196;6.454;2022-08-19T02:07:43;96225.19;;;19.47;100.00
27232;BME280;61835;50.196;6.454;2022-08-19T02:10:17;96230.31;;;19.42;100.00
27232;BME280;61835;50.196;6.454;2022-08-19T02:12:43;96234.19;;;19.39;100.00
27232;BME280;61835;50.196;6.454;2022-08-19T02:15:09;96233.47;;;19.45;100.00
27232;BME280;61835;50.196;6.454;2022-08-19T02:17:35;96221.03;;;19.44;100.00
27232;BME280;61835;50.196;6.454;2022-08-19T02:20:01;96227.97;;;19.39;100.00
27232;BME280;61835;50.196;6.454;2022-08-19T02:22:26;96236.19;;;19.37;100.00
27232;BME280;61835;50.196;6.454;2022-08-19T02:24:53;96228.84;;;19.31;100.00
27232;BME280;61835;50.196;6.454;2022-08-19T02:27:20;96228.81;;;19.39;100.00
27232;BME280;61835;50.196;6.454;2022-08-19T02:29:47;96228.44;;;19.42;100.00
27232;BME280;61835;50.196;6.454;2022-08-19T02:32:13;96232.31;;;19.40;100.00
27232;BME280;61835;50.196;6.454;2022-08-19T02:34:39;96232.16;;;19.41;100.00
27232;BME280;61835;50.196;6.454;2022-08-19T02:37:04;96230.84;;;19.52;100.00
27232;BME280;61835;50.196;6.454;2022-08-19T02:39:30;96231.53;;;19.54;100.00
27232;BME280;61835;50.196;6.454;2022-08-19T02:41:55;96234.00;;;19.56;100.00
27232;BME280;61835;50.196;6.454;2022-08-19T02:44:21;96234.28;;;19.46;100.00
27232;BME280;61835;50.196;6.454;2022-08-19T02:46:47;96236.88;;;19.39;100.00
27232;BME280;61835;50.196;6.454;2022-08-19T02:49:13;96232.00;;;19.35;100.00
27232;BME280;61835;50.196;6.454;2022-08-19T02:51:42;96236.91;;;19.31;100.00
27232;BME280;61835;50.196;6.454;2022-08-19T02:54:09;96233.88;;;19.34;100.00
27232;BME280;61835;50.196;6.454;2022-08-19T02:56:37;96235.44;;;19.29;100.00
27232;BME280;61835;50.196;6.454;2022-08-19T02:59:04;96240.34;;;19.25;100.00
27232;BME280;61835;50.196;6.454;2022-08-19T03:01:36;96233.47;;;19.23;100.00
27232;BME280;61835;50.196;6.454;2022-08-19T03:04:03;96230.22;;;19.13;100.00
27232;BME280;61835;50.196;6.454;2022-08-19T03:06:30;96234.66;;;19.06;100.00
27232;BME280;61835;50.196;6.454;2022-08-19T03:08:56;96229.56;;;19.11;100.00
27232;BME280;61835;50.196;6.454;2022-08-19T03:11:26;96237.34;;;19.06;100.00
27232;BME280;61835;50.196;6.454;2022-08-19T03:13:52;96244.09;;;19.02;100.00
27232;BME280;61835;50.196;6.454;2022-08-19T03:16:21;96253.25;;;18.92;100.00
27232;BME280;61835;50.196;6.454;2022-08-19T03:18:47;96249.63;;;18.85;100.00
27232;BME280;61835;50.196;6.454;2022-08-19T03:21:22;96258.13;;;18.74;100.00
27232;BME280;61835;50.196;6.454;2022-08-19T03:23:49;96260.31;;;18.71;100.00
27232;BME280;61835;50.196;6.454;2022-08-19T03:26:14;96260.09;;;18.80;100.00
27232;BME280;61835;50.196;6.454;2022-08-19T03:28:41;96261.00;;;18.87;100.00
27232;BME280;61835;50.196;6.454;2022-08-19T03:31:12;96272.47;;;18.81;100.00
27232;BME280;61835;50.196;6.454;2022-08-19T03:33:39;96262.81;;;18.95;100.00
27232;BME280;61835;50.196;6.454;2022-08-19T03:36:20;96259.22;;;19.03;100.00
27232;BME280;61835;50.196;6.454;2022-08-19T03:38:50;96253.13;;;19.09;100.00
27232;BME280;61835;50.196;6.454;2022-08-19T03:41:19;96257.75;;;19.15;100.00
27232;BME280;61835;50.196;6.454;2022-08-19T03:43:46;96243.97;;;19.18;100.00
27232;BME280;61835;50.196;6.454;2022-08-19T03:46:33;96244.03;;;19.10;100.00
27232;BME280;61835;50.196;6.454;2022-08-19T03:49:00;96252.16;;;19.02;100.00
27232;BME280;61835;50.196;6.454;2022-08-19T03:51:34;96257.25;;;18.97;100.00
27232;BME280;61835;50.196;6.454;2022-08-19T03:54:01;96257.03;;;18.83;100.00
27232;BME280;61835;50.196;6.454;2022-08-19T03:56:28;96256.84;;;18.85;100.00
27232;BME280;61835;50.196;6.454;2022-08-19T03:58:58;96255.06;;;18.77;100.00
27232;BME280;61835;50.196;6.454;2022-08-19T04:01:28;96256.13;;;18.68;100.00
27232;BME280;61835;50.196;6.454;2022-08-19T04:03:55;96263.00;;;18.71;100.00
27232;BME280;61835;50.196;6.454;2022-08-19T04:06:39;96260.81;;;18.74;100.00
27232;BME280;61835;50.196;6.454;2022-08-19T04:09:08;96252.06;;;18.72;100.00
27232;BME280;61835;50.196;6.454;2022-08-19T04:11:42;96257.84;;;18.61;100.00
27232;BME280;61835;50.196;6.454;2022-08-19T04:14:10;96260.25;;;18.56;100.00
27232;BME280;61835;50.196;6.454;2022-08-19T04:16:36;96263.28;;;18.53;100.00
27232;BME280;61835;50.196;6.454;2022-08-19T04:19:03;96262.09;;;18.56;100.00
27232;BME280;61835;50.196;6.454;2022-08-19T04:21:30;96261.44;;;18.46;100.00
27232;BME280;61835;50.196;6.454;2022-08-19T04:23:57;96267.66;;;18.46;100.00
27232;BME280;61835;50.196;6.454;2022-08-19T04:26:28;96261.97;;;18.49;100.00
27232;BME280;61835;50.196;6.454;2022-08-19T04:28:58;96261.09;;;18.57;100.00
27232;BME280;61835;50.196;6.454;2022-08-19T04:31:26;96265.44;;;18.58;100.00
27232;BME280;61835;50.196;6.454;2022-08-19T04:33:53;96261.25;;;18.55;100.00
27232;BME280;61835;50.196;6.454;2022-08-19T04:36:25;96267.19;;;18.51;100.00
27232;BME280;61835;50.196;6.454;2022-08-19T04:38:58;96262.44;;;18.53;100.00
27232;BME280;61835;50.196;6.454;2022-08-19T04:41:24;96259.94;;;18.43;100.00
27232;BME280;61835;50.196;6.454;2022-08-19T04:44:08;96269.75;;;18.36;100.00
27232;BME280;61835;50.196;6.454;2022-08-19T04:46:34;96273.25;;;18.36;100.00
27232;BME280;61835;50.196;6.454;2022-08-19T04:49:01;96274.69;;;18.24;100.00
27232;BME280;61835;50.196;6.454;2022-08-19T04:51:27;96280.66;;;18.34;100.00
27232;BME280;61835;50.196;6.454;2022-08-19T04:53:53;96286.31;;;18.39;100.00
27232;BME280;61835;50.196;6.454;2022-08-19T04:56:20;96279.41;;;18.53;100.00
27232;BME280;61835;50.196;6.454;2022-08-19T04:58:48;96290.03;;;18.69;100.00
27232;BME280;61835;50.196;6.454;2022-08-19T05:01:17;96291.88;;;18.69;100.00
27232;BME280;61835;50.196;6.454;2022-08-19T05:03:43;96289.22;;;18.91;100.00
27232;BME280;61835;50.196;6.454;2022-08-19T05:06:13;96279.19;;;18.85;100.00
27232;BME280;61835;50.196;6.454;2022-08-19T05:08:40;96289.22;;;18.91;100.00
27232;BME280;61835;50.196;6.454;2022-08-19T05:11:29;96298.75;;;19.17;100.00
27232;BME280;61835;50.196;6.454;2022-08-19T05:13:56;96303.03;;;19.26;100.00
27232;BME280;61835;50.196;6.454;2022-08-19T05:16:23;96294.53;;;19.37;100.00
27232;BME280;61835;50.196;6.454;2022-08-19T05:18:49;96296.84;;;19.48;100.00
27232;BME280;61835;50.196;6.454;2022-08-19T05:21:34;96291.28;;;19.64;100.00
27232;BME280;61835;50.196;6.454;2022-08-19T05:24:19;96286.09;;;19.77;100.00
27232;BME280;61835;50.196;6.454;2022-08-19T05:26:47;96289.91;;;19.68;100.00
27232;BME280;61835;50.196;6.454;2022-08-19T05:29:14;96280.34;;;19.80;100.00
27232;BME280;61835;50.196;6.454;2022-08-19T05:31:40;96289.69;;;19.70;100.00
27232;BME280;61835;50.196;6.454;2022-08-19T05:34:06;96290.91;;;19.67;100.00
27232;BME280;61835;50.196;6.454;2022-08-19T05:36:42;96289.31;;;19.87;100.00
27232;BME280;61835;50.196;6.454;2022-08-19T05:39:10;96288.13;;;20.04;100.00
27232;BME280;61835;50.196;6.454;2022-08-19T05:41:41;96284.47;;;20.41;100.00
27232;BME280;61835;50.196;6.454;2022-08-19T05:44:07;96286.91;;;20.72;100.00
27232;BME280;61835;50.196;6.454;2022-08-19T05:46:34;96282.09;;;20.89;100.00
27232;BME280;61835;50.196;6.454;2022-08-19T05:49:00;96275.09;;;20.94;100.00
27232;BME280;61835;50.196;6.454;2022-08-19T05:51:26;96279.19;;;20.90;100.00
27232;BME280;61835;50.196;6.454;2022-08-19T05:53:51;96282.09;;;20.89;100.00
27232;BME280;61835;50.196;6.454;2022-08-19T05:56:17;96282.16;;;20.95;100.00
27232;BME280;61835;50.196;6.454;2022-08-19T05:58:44;96295.63;;;21.10;100.00
27232;BME280;61835;50.196;6.454;2022-08-19T06:01:15;96298.31;;;21.31;100.00
27232;BME280;61835;50.196;6.454;2022-08-19T06:03:43;96291.91;;;21.60;100.00
27232;BME280;61835;50.196;6.454;2022-08-19T06:06:12;96294.00;;;21.92;100.00
27232;BME280;61835;50.196;6.454;2022-08-19T06:08:39;96300.97;;;22.14;100.00
27232;BME280;61835;50.196;6.454;2022-08-19T06:11:31;96294.19;;;22.25;100.00
27232;BME280;61835;50.196;6.454;2022-08-19T06:14:01;96293.03;;;22.47;100.00
27232;BME280;61835;50.196;6.454;2022-08-19T06:16:27;96292.34;;;22.73;100.00
27232;BME280;61835;50.196;6.454;2022-08-19T06:18:55;96292.63;;;23.04;100.00
27232;BME280;61835;50.196;6.454;2022-08-19T06:21:25;96287.66;;;23.27;100.00
27232;BME280;61835;50.196;6.454;2022-08-19T06:23:51;96289.50;;;23.07;100.00
27232;BME280;61835;50.196;6.454;2022-08-19T06:26:18;96297.56;;;22.94;100.00
27232;BME280;61835;50.196;6.454;2022-08-19T06:28:45;96295.03;;;22.66;100.00
27232;BME280;61835;50.196;6.454;2022-08-19T06:31:40;96303.69;;;22.62;100.00
27232;BME280;61835;50.196;6.454;2022-08-19T06:34:06;96305.31;;;22.50;100.00
27232;BME280;61835;50.196;6.454;2022-08-19T06:36:35;96307.72;;;22.72;100.00
27232;BME280;61835;50.196;6.454;2022-08-19T06:39:05;96296.94;;;22.86;100.00
27232;BME280;61835;50.196;6.454;2022-08-19T06:41:34;96292.00;;;23.22;100.00
27232;BME280;61835;50.196;6.454;2022-08-19T06:44:00;96290.19;;;23.49;100.00
27232;BME280;61835;50.196;6.454;2022-08-19T06:46:26;96290.41;;;23.67;100.00
27232;BME280;61835;50.196;6.454;2022-08-19T06:48:52;96292.69;;;23.70;100.00
27232;BME280;61835;50.196;6.454;2022-08-19T06:51:20;96311.22;;;23.79;100.00
27232;BME280;61835;50.196;6.454;2022-08-19T06:53:47;96298.69;;;23.98;100.00
27232;BME280;61835;50.196;6.454;2022-08-19T06:56:17;96300.78;;;24.03;100.00
27232;BME280;61835;50.196;6.454;2022-08-19T06:58:44;96305.91;;;24.43;100.00
27232;BME280;61835;50.196;6.454;2022-08-19T07:01:09;96298.25;;;24.72;100.00
27232;BME280;61835;50.196;6.454;2022-08-19T07:03:37;96305.13;;;24.81;100.00
27232;BME280;61835;50.196;6.454;2022-08-19T07:06:12;96301.06;;;25.03;100.00
27232;BME280;61835;50.196;6.454;2022-08-19T07:08:39;96310.47;;;25.32;100.00
27232;BME280;61835;50.196;6.454;2022-08-19T07:11:10;96301.53;;;25.56;100.00
27232;BME280;61835;50.196;6.454;2022-08-19T07:13:36;96306.84;;;25.94;100.00
27232;BME280;61835;50.196;6.454;2022-08-19T07:16:07;96310.56;;;26.24;100.00
27232;BME280;61835;50.196;6.454;2022-08-19T07:18:33;96302.56;;;26.04;100.00
27232;BME280;61835;50.196;6.454;2022-08-19T07:23:55;96311.59;;;26.96;100.00
27232;BME280;61835;50.196;6.454;2022-08-19T07:26:28;96310.13;;;27.11;100.00
27232;BME280;61835;50.196;6.454;2022-08-19T07:28:54;96313.31;;;27.08;100.00
27232;BME280;61835;50.196;6.454;2022-08-19T07:31:22;96313.88;;;26.63;100.00
27232;BME280;61835;50.196;6.454;2022-08-19T07:33:49;96312.81;;;26.45;100.00
27232;BME280;61835;50.196;6.454;2022-08-19T07:36:18;96319.97;;;26.76;100.00
27232;BME280;61835;50.196;6.454;2022-08-19T07:38:47;96330.81;;;26.65;100.00
27232;BME280;61835;50.196;6.454;2022-08-19T07:41:16;96326.25;;;26.77;100.00
27232;BME280;61835;50.196;6.454;2022-08-19T07:43:41;96327.41;;;26.87;100.00
27232;BME280;61835;50.196;6.454;2022-08-19T07:46:09;96332.31;;;26.79;100.00
27232;BME280;61835;50.196;6.454;2022-08-19T07:48:34;96331.91;;;27.11;100.00
27232;BME280;61835;50.196;6.454;2022-08-19T07:51:03;96327.06;;;27.43;100.00
27232;BME280;61835;50.196;6.454;2022-08-19T07:53:31;96325.47;;;27.54;100.00
27232;BME280;61835;50.196;6.454;2022-08-19T07:55:58;96331.50;;;27.56;100.00
27232;BME280;61835;50.196;6.454;2022-08-19T07:58:27;96333.25;;;27.50;100.00
27232;BME280;61835;50.196;6.454;2022-08-19T08:00:52;96327.25;;;27.30;100.00
27232;BME280;61835;50.196;6.454;2022-08-19T08:03:19;96335.56;;;26.87;100.00
27232;BME280;61835;50.196;6.454;2022-08-19T08:05:46;96340.41;;;27.03;100.00
27232;BME280;61835;50.196;6.454;2022-08-19T08:08:30;96337.34;;;27.41;100.00
27232;BME280;61835;50.196;6.454;2022-08-19T08:11:05;96332.53;;;27.55;100.00
27232;BME280;61835;50.196;6.454;2022-08-19T08:13:31;96337.22;;;27.36;100.00
27232;BME280;61835;50.196;6.454;2022-08-19T08:16:01;96334.25;;;27.67;100.00
27232;BME280;61835;50.196;6.454;2022-08-19T08:18:27;96333.56;;;27.84;100.00
27232;BME280;61835;50.196;6.454;2022-08-19T08:20:54;96334.31;;;27.49;100.00
27232;BME280;61835;50.196;6.454;2022-08-19T08:23:19;96344.78;;;27.34;100.00
27232;BME280;61835;50.196;6.454;2022-08-19T08:25:51;96339.75;;;27.49;100.00
27232;BME280;61835;50.196;6.454;2022-08-19T08:28:17;96340.63;;;27.61;100.00
27232;BME280;61835;50.196;6.454;2022-08-19T08:30:44;96344.66;;;27.59;100.00
27232;BME280;61835;50.196;6.454;2022-08-19T08:33:10;96340.66;;;27.13;100.00
27232;BME280;61835;50.196;6.454;2022-08-19T08:35:36;96347.50;;;27.04;100.00
27232;BME280;61835;50.196;6.454;2022-08-19T08:38:02;96356.97;;;27.32;100.00
27232;BME280;61835;50.196;6.454;2022-08-19T08:40:50;96351.81;;;27.12;100.00
27232;BME280;61835;50.196;6.454;2022-08-19T08:46:00;96361.66;;;26.58;100.00
27232;BME280;61835;50.196;6.454;2022-08-19T08:51:58;96361.94;;;27.05;100.00
27232;BME280;61835;50.196;6.454;2022-08-19T08:54:30;96363.16;;;26.73;100.00
27232;BME280;61835;50.196;6.454;2022-08-19T08:56:58;96361.53;;;26.29;100.00
27232;BME280;61835;50.196;6.454;2022-08-19T08:59:33;96352.72;;;26.33;100.00
27232;BME280;61835;50.196;6.454;2022-08-19T09:01:59;96356.97;;;26.84;100.00
27232;BME280;61835;50.196;6.454;2022-08-19T09:04:25;96358.19;;;26.88;100.00
27232;BME280;61835;50.196;6.454;2022-08-19T09:09:46;96345.97;;;26.72;100.00
27232;BME280;61835;50.196;6.454;2022-08-19T09:12:16;96354.72;;;27.29;100.00
27232;BME280;61835;50.196;6.454;2022-08-19T09:15:06;96348.34;;;27.64;100.00
27232;BME280;61835;50.196;6.454;2022-08-19T09:17:32;96355.66;;;27.04;100.00
27232;BME280;61835;50.196;6.454;2022-08-19T09:20:19;96354.59;;;27.53;100.00
27232;BME280;61835;50.196;6.454;2022-08-19T09:22:45;96347.78;;;27.86;100.00
27232;BME280;61835;50.196;6.454;2022-08-19T09:25:17;96340.94;;;27.95;100.00
27232;BME280;61835;50.196;6.454;2022-08-19T09:27:43;96353.25;;;27.86;100.00
27232;BME280;61835;50.196;6.454;2022-08-19T09:30:22;96348.78;;;28.14;100.00
27232;BME280;61835;50.196;6.454;2022-08-19T09:32:48;96337.78;;;28.21;100.00
27232;BME280;61835;50.196;6.454;2022-08-19T09:35:14;96347.13;;;28.48;100.00
27232;BME280;61835;50.196;6.454;2022-08-19T09:37:41;96339.78;;;28.37;100.00
27232;BME280;61835;50.196;6.454;2022-08-19T09:40:08;96338.00;;;28.66;100.00
27232;BME280;61835;50.196;6.454;2022-08-19T09:42:33;96344.53;;;28.65;100.00
27232;BME280;61835;50.196;6.454;2022-08-19T09:44:59;96342.84;;;28.64;100.00
27232;BME280;61835;50.196;6.454;2022-08-19T09:47:24;96350.44;;;28.50;100.00
27232;BME280;61835;50.196;6.454;2022-08-19T09:49:50;96355.84;;;27.81;100.00
27232;BME280;61835;50.196;6.454;2022-08-19T09:52:15;96362.81;;;27.77;100.00
27232;BME280;61835;50.196;6.454;2022-08-19T09:54:41;96350.22;;;28.17;100.00
27232;BME280;61835;50.196;6.454;2022-08-19T09:57:06;96360.13;;;28.00;100.00
27232;BME280;61835;50.196;6.454;2022-08-19T09:59:32;96360.09;;;27.77;100.00
27232;BME280;61835;50.196;6.454;2022-08-19T10:01:58;96370.16;;;27.76;100.00
27232;BME280;61835;50.196;6.454;2022-08-19T10:04:23;96370.81;;;27.48;100.00
27232;BME280;61835;50.196;6.454;2022-08-19T10:07:09;96374.25;;;27.26;100.00
27232;BME280;61835;50.196;6.454;2022-08-19T10:09:34;96377.25;;;26.88;100.00
27232;BME280;61835;50.196;6.454;2022-08-19T10:12:01;96374.22;;;26.78;100.00
27232;BME280;61835;50.196;6.454;2022-08-19T10:14:26;96376.28;;;27.30;100.00
27232;BME280;61835;50.196;6.454;2022-08-19T10:16:52;96383.00;;;26.98;100.00
27232;BME280;61835;50.196;6.454;2022-08-19T10:19:18;96381.19;;;26.92;100.00
27232;BME280;61835;50.196;6.454;2022-08-19T10:21:45;96372.47;;;26.65;100.00
27232;BME280;61835;50.196;6.454;2022-08-19T10:24:10;96373.22;;;26.90;100.00
27232;BME280;61835;50.196;6.454;2022-08-19T10:26:38;96370.88;;;26.94;100.00
27232;BME280;61835;50.196;6.454;2022-08-19T10:29:06;96365.06;;;27.68;100.00
27232;BME280;61835;50.196;6.454;2022-08-19T10:31:33;96357.16;;;27.78;100.00
27232;BME280;61835;50.196;6.454;2022-08-19T10:33:59;96367.41;;;27.64;100.00
27232;BME280;61835;50.196;6.454;2022-08-19T10:36:31;96366.53;;;27.23;100.00
27232;BME280;61835;50.196;6.454;2022-08-19T10:38:59;96366.31;;;27.24;100.00
27232;BME280;61835;50.196;6.454;2022-08-19T10:41:29;96352.34;;;27.02;100.00
27232;BME280;61835;50.196;6.454;2022-08-19T10:43:57;96354.19;;;27.91;100.00
27232;BME280;61835;50.196;6.454;2022-08-19T10:46:25;96348.31;;;27.53;100.00
27232;BME280;61835;50.196;6.454;2022-08-19T10:48:52;96361.28;;;27.69;100.00
27232;BME280;61835;50.196;6.454;2022-08-19T10:51:18;96348.84;;;27.96;100.00
27232;BME280;61835;50.196;6.454;2022-08-19T10:54:03;96336.00;;;28.15;100.00
27232;BME280;61835;50.196;6.454;2022-08-19T10:56:29;96335.50;;;28.18;100.00
27232;BME280;61835;50.196;6.454;2022-08-19T10:59:13;96335.63;;;28.11;100.00
27232;BME280;61835;50.196;6.454;2022-08-19T11:01:41;96328.56;;;28.85;99.73
27232;BME280;61835;50.196;6.454;2022-08-19T11:04:07;96329.75;;;28.89;100.00
27232;BME280;61835;50.196;6.454;2022-08-19T11:06:37;96329.59;;;29.64;92.87
27232;BME280;61835;50.196;6.454;2022-08-19T11:09:04;96324.25;;;29.57;89.02
27232;BME280;61835;50.196;6.454;2022-08-19T11:11:29;96326.25;;;29.62;84.58
27232;BME280;61835;50.196;6.454;2022-08-19T11:13:55;96327.28;;;29.16;86.81
27232;BME280;61835;50.196;6.454;2022-08-19T11:16:24;96332.59;;;29.22;84.46
27232;BME280;61835;50.196;6.454;2022-08-19T11:18:53;96331.75;;;28.94;92.23
27232;BME280;61835;50.196;6.454;2022-08-19T11:21:24;96334.50;;;29.22;92.24
27232;BME280;61835;50.196;6.454;2022-08-19T11:23:53;96328.75;;;29.35;90.44
27232;BME280;61835;50.196;6.454;2022-08-19T11:26:20;96327.56;;;29.03;87.86
27232;BME280;61835;50.196;6.454;2022-08-19T11:28:46;96331.13;;;29.03;93.11
27232;BME280;61835;50.196;6.454;2022-08-19T11:31:14;96334.44;;;29.90;81.11
27232;BME280;61835;50.196;6.454;2022-08-19T11:33:40;96328.25;;;30.33;79.86
27232;BME280;61835;50.196;6.454;2022-08-19T11:36:06;96324.75;;;31.14;65.52
27232;BME280;61835;50.196;6.454;2022-08-19T11:38:33;96326.28;;;31.54;65.33
27232;BME280;61835;50.196;6.454;2022-08-19T11:41:04;96323.84;;;30.87;68.35
27232;BME280;61835;50.196;6.454;2022-08-19T11:43:30;96322.75;;;31.10;65.05
27232;BME280;61835;50.196;6.454;2022-08-19T11:45:56;96320.25;;;31.30;66.64
27232;BME280;61835;50.196;6.454;2022-08-19T11:48:23;96320.19;;;31.25;66.58
27232;BME280;61835;50.196;6.454;2022-08-19T11:50:50;96307.59;;;31.77;63.97
27232;BME280;61835;50.196;6.454;2022-08-19T11:53:17;96317.19;;;31.00;66.70
27232;BME280;61835;50.196;6.454;2022-08-19T11:55:44;96315.66;;;30.92;67.04
27232;BME280;61835;50.196;6.454;2022-08-19T11:58:11;96317.41;;;30.76;67.99
27232;BME280;61835;50.196;6.454;2022-08-19T12:00:37;96307.06;;;30.83;69.95
27232;BME280;61835;50.196;6.454;2022-08-19T12:03:03;96305.25;;;30.67;65.40
27232;BME280;61835;50.196;6.454;2022-08-19T12:05:28;96312.03;;;30.86;69.56
27232;BME280;61835;50.196;6.454;2022-08-19T12:07:54;96312.53;;;31.80;56.18
27232;BME280;61835;50.196;6.454;2022-08-19T12:10:20;96304.66;;;31.57;56.43
27232;BME280;61835;50.196;6.454;2022-08-19T12:12:46;96310.19;;;31.62;53.75
27232;BME280;61835;50.196;6.454;2022-08-19T12:15:12;96316.66;;;32.10;56.56
27232;BME280;61835;50.196;6.454;2022-08-19T12:17:40;96307.88;;;33.01;54.17
27232;BME280;61835;50.196;6.454;2022-08-19T12:20:09;96308.16;;;33.05;49.16
27232;BME280;61835;50.196;6.454;2022-08-19T12:22:39;96301.47;;;34.64;45.35
27232;BME280;61835;50.196;6.454;2022-08-19T12:25:08;96301.25;;;33.85;46.00
27232;BME280;61835;50.196;6.454;2022-08-19T12:27:34;96305.88;;;34.55;44.30
27232;BME280;61835;50.196;6.454;2022-08-19T12:30:01;96301.00;;;34.27;45.31
27232;BME280;61835;50.196;6.454;2022-08-19T12:32:27;96297.09;;;34.07;47.11
27232;BME280;61835;50.196;6.454;2022-08-19T12:34:53;96307.34;;;32.52;50.46
27232;BME280;61835;50.196;6.454;2022-08-19T12:37:19;96297.66;;;33.69;47.53
27232;BME280;61835;50.196;6.454;2022-08-19T12:39:44;96289.59;;;33.37;49.06
27232;BME280;61835;50.196;6.454;2022-08-19T12:42:11;96290.22;;;33.64;47.01
27232;BME280;61835;50.196;6.454;2022-08-19T12:44:38;96284.47;;;34.22;45.71
27232;BME280;61835;50.196;6.454;2022-08-19T12:47:05;96281.31;;;34.84;44.60
27232;BME280;61835;50.196;6.454;2022-08-19T12:49:32;96292.41;;;34.48;45.50
27232;BME280;61835;50.196;6.454;2022-08-19T12:52:00;96286.09;;;34.07;46.29
27232;BME280;61835;50.196;6.454;2022-08-19T12:54:26;96285.78;;;32.71;49.68
27232;BME280;61835;50.196;6.454;2022-08-19T12:56:51;96284.25;;;32.07;50.62
27232;BME280;61835;50.196;6.454;2022-08-19T12:59:17;96284.41;;;31.95;53.72
27232;BME280;61835;50.196;6.454;2022-08-19T13:01:44;96284.31;;;32.17;51.84
27232;BME280;61835;50.196;6.454;2022-08-19T13:04:10;96280.06;;;32.36;49.43
27232;BME280;61835;50.196;6.454;2022-08-19T13:06:36;96290.03;;;31.78;51.86
27232;BME280;61835;50.196;6.454;2022-08-19T13:09:03;96288.91;;;31.74;52.31
27232;BME280;61835;50.196;6.454;2022-08-19T13:11:29;96282.97;;;31.82;51.53